Pagrindinis puslapis
METAR-TAF:

METAR-TAF

Oro uostai :

Konakris, Gvinėja

platuma: 09-34N, ilguma: 013-37W, Aukštis: 26 m

Dabartinis oras

Ataskaita buvo paskelbta 7 valandos ir 17 minutes, ne 00:00 UTC
Vėjas 6 kt iš Pietų/Pietvakarių
Temperatūra 28°C
Drėgmė 84%
Slėgis 1015 hPa
Matomumas 10 km arba daugiau
Mažai debesys ne aukštis 1500 ft
Su prošvaistėmis ne aukštis 11000 ft

METAR: GUCY 070000Z 20006KT 9999 FEW015 BKN110 28/25 Q1015 NOSIG

Laikas: 07:17 (07:17 UTC)

Prognozė

Ataskaita buvo paskelbta 8 valandos ir 17 minutes, ne 23:00 UTC
Prognozė galioja nuo 07 metu 00 UTC su 08 metu 06 UTC
Vėjas 6 kt iš Vakarų
Matomumas 10 km arba daugiau
Išsisklaidę debesys ne aukštis 1600 ft
Išsisklaidę debesys ne aukštis 11500 ft
Laikinai
nuo 07 metu 03 UTC su 07 metu 08 UTC
Su prošvaistėmis ne aukštis 1500 ft
Mažai debesys ne aukštis 2300 ft, Liūtiniai kamuoliniai debesys.
Su prošvaistėmis ne aukštis 11000 ft

TAF: GUCY 062300Z 0700/0806 26006KT 9999 SCT016 SCT115 TEMPO 0703/0708 BKN015 FEW023CB BKN110

Orai ataskaitas ir orų prognozės (METAR, TAF).

turimą stotys yra geltonos ir raudonos taškus žemėlapyje.

Perkelti pele per norėdami pamatyti stoties vardą.

Tada spustelėkite, norėdami matyti oro stebėjimo ir prognozės.

Norėdami pakeisti žemėlapį: spustelėkite ant žalios mygtukų su juodo kryžiaus žemyn,; žalią mygtuką su brūkšneliu, jei norite nutolinti; arba žalių rodyklių gretimoms žemėlapius.


METAR-TAF: